Time;durP1;ratioP1;P1;durP2;ratioP2;P2;SDS_P1;SDS_P2;PMS_P1;PMS_P2;Temp;Humidity;BMP_temperature;BMP_pressure;BME280_temperature;BME280_humidity;BME280_pressure;Samples;Min_cycle;Max_cycle;Signal;HPM_P1;HPM_P2
2021/09/08 00:01:28;;;;;;;12.53;8.57;;;16.40;99.90;;;;;;5033394;28;20188;-71
2021/09/08 00:03:53;;;;;;;13.50;8.67;;;16.40;99.90;;;;;;5034058;28;20396;-71
2021/09/08 00:06:19;;;;;;;9.53;7.60;;;16.30;99.90;;;;;;5033595;28;20165;-71
2021/09/08 00:08:44;;;;;;;11.50;9.27;;;16.30;99.90;;;;;;5032490;28;20605;-71
2021/09/08 00:11:10;;;;;;;15.53;9.10;;;16.30;99.90;;;;;;5033746;28;20727;-71
2021/09/08 00:13:35;;;;;;;18.20;10.13;;;16.30;99.90;;;;;;5033891;28;20188;-71
2021/09/08 00:16:01;;;;;;;12.63;9.17;;;16.30;99.90;;;;;;5033996;28;20204;-71
2021/09/08 00:18:27;;;;;;;10.60;8.33;;;16.20;99.90;;;;;;5033371;28;20703;-71
2021/09/08 00:20:52;;;;;;;10.97;8.10;;;16.30;99.90;;;;;;5033380;28;20176;-71
2021/09/08 00:23:18;;;;;;;8.70;7.70;;;16.20;99.90;;;;;;5023375;28;20173;-71
2021/09/08 00:25:43;;;;;;;10.93;8.23;;;16.20;99.90;;;;;;5028408;28;20188;-71
2021/09/08 00:28:09;;;;;;;11.10;8.67;;;16.20;99.90;;;;;;5033203;28;20226;-71
2021/09/08 00:30:35;;;;;;;12.07;8.13;;;16.20;99.90;;;;;;5030655;28;20268;-71
2021/09/08 00:33:00;;;;;;;10.47;8.60;;;16.20;99.90;;;;;;5033698;28;20255;-71
2021/09/08 00:35:26;;;;;;;14.27;8.83;;;16.20;99.90;;;;;;5033502;28;20589;-71
2021/09/08 00:37:51;;;;;;;10.60;8.23;;;16.10;99.90;;;;;;5022638;28;20296;-71
2021/09/08 00:40:17;;;;;;;13.40;8.90;;;16.10;99.90;;;;;;5025911;28;20257;-71
2021/09/08 00:42:44;;;;;;;11.53;8.13;;;16.10;99.90;;;;;;5033092;28;20188;-71
2021/09/08 00:45:10;;;;;;;12.33;9.20;;;16.10;99.90;;;;;;5032950;28;20232;-71
2021/09/08 00:47:36;;;;;;;10.47;7.13;;;16.10;99.90;;;;;;5032683;28;20815;-71
2021/09/08 00:50:02;;;;;;;10.73;7.73;;;16.10;99.90;;;;;;5032669;28;20502;-71
2021/09/08 00:52:28;;;;;;;12.70;7.87;;;16.10;99.90;;;;;;5033169;28;20522;-71
2021/09/08 00:54:55;;;;;;;10.03;7.60;;;16.10;99.90;;;;;;5033199;28;20396;-71
2021/09/08 00:57:22;;;;;;;10.83;7.07;;;16.00;99.90;;;;;;5032897;28;20780;-71
2021/09/08 00:59:48;;;;;;;12.53;8.07;;;16.00;99.90;;;;;;5031854;28;20594;-71
2021/09/08 01:02:14;;;;;;;11.17;7.20;;;16.00;99.90;;;;;;5032097;28;20503;-71
2021/09/08 01:04:39;;;;;;;10.00;7.37;;;16.00;99.90;;;;;;5032881;28;20432;-71
2021/09/08 01:07:06;;;;;;;12.50;7.90;;;16.00;99.90;;;;;;5032731;28;20396;-71
2021/09/08 01:09:32;;;;;;;11.00;8.00;;;16.00;99.90;;;;;;5032500;28;20180;-71
2021/09/08 01:11:58;;;;;;;10.43;7.23;;;16.00;99.90;;;;;;5032772;28;20396;-71
2021/09/08 01:14:23;;;;;;;14.73;8.97;;;16.00;99.90;;;;;;5032468;28;20505;-71
2021/09/08 01:16:51;;;;;;;10.87;8.00;;;16.00;99.90;;;;;;5032640;28;20726;-71
2021/09/08 01:19:17;;;;;;;10.20;8.10;;;15.90;99.90;;;;;;5031871;28;20196;-71
2021/09/08 01:21:43;;;;;;;12.37;7.90;;;15.90;99.90;;;;;;5032594;28;20903;-71
2021/09/08 01:24:09;;;;;;;10.60;8.80;;;15.90;99.90;;;;;;5032720;28;20759;-71
2021/09/08 01:26:36;;;;;;;12.00;8.10;;;15.90;99.90;;;;;;5032531;28;20396;-71
2021/09/08 01:29:03;;;;;;;11.20;7.57;;;15.90;99.90;;;;;;5032392;28;20792;-71
2021/09/08 01:31:29;;;;;;;11.83;8.70;;;15.90;99.90;;;;;;5031188;28;20433;-71
2021/09/08 01:33:55;;;;;;;11.60;7.80;;;15.90;99.90;;;;;;5032249;28;20420;-71
2021/09/08 01:36:20;;;;;;;13.33;7.67;;;15.80;99.90;;;;;;5031630;28;20176;-71
2021/09/08 01:38:46;;;;;;;11.87;7.97;;;15.80;99.90;;;;;;5012398;28;20212;-71
2021/09/08 01:41:11;;;;;;;9.73;8.10;;;15.80;99.90;;;;;;5028156;28;20283;-71
2021/09/08 01:43:37;;;;;;;12.43;8.13;;;15.80;99.90;;;;;;5031891;28;20184;-71
2021/09/08 01:46:02;;;;;;;14.57;8.87;;;15.80;99.90;;;;;;5032382;28;20153;-71
2021/09/08 01:48:28;;;;;;;10.17;8.20;;;15.80;99.90;;;;;;5032262;28;20161;-71
2021/09/08 01:50:54;;;;;;;14.00;9.10;;;15.80;99.90;;;;;;5031714;28;20197;-71
2021/09/08 01:53:19;;;;;;;10.80;8.20;;;15.80;99.90;;;;;;5032263;28;20177;-71
2021/09/08 01:55:47;;;;;;;12.90;8.77;;;15.80;99.90;;;;;;5032365;28;20653;-71
2021/09/08 01:58:12;;;;;;;11.87;10.10;;;15.80;99.90;;;;;;5031755;28;20197;-71
2021/09/08 02:00:38;;;;;;;14.10;8.60;;;15.80;99.90;;;;;;5033016;28;20556;-71
2021/09/08 02:03:04;;;;;;;10.83;7.83;;;15.90;99.90;;;;;;5036887;28;20570;-69
2021/09/08 02:05:29;;;;;;;12.73;9.07;;;15.80;99.90;;;;;;5036433;28;20641;-69
2021/09/08 02:07:55;;;;;;;11.70;8.60;;;15.80;99.90;;;;;;5021977;28;20181;-69
2021/09/08 02:10:20;;;;;;;14.30;7.30;;;15.80;99.90;;;;;;5034991;28;20191;-69
2021/09/08 02:12:46;;;;;;;11.30;8.60;;;15.80;99.90;;;;;;5035923;28;20192;-69
2021/09/08 02:15:12;;;;;;;10.80;8.43;;;15.80;99.90;;;;;;5035877;28;20566;-69
2021/09/08 02:17:38;;;;;;;13.00;8.63;;;15.80;99.90;;;;;;5035278;28;20173;-69
2021/09/08 02:20:04;;;;;;;9.87;7.70;;;15.80;99.90;;;;;;5035506;28;20434;-69
2021/09/08 02:22:29;;;;;;;9.97;7.87;;;15.80;99.90;;;;;;5035873;28;20161;-69
2021/09/08 02:24:55;;;;;;;12.10;8.17;;;15.70;99.90;;;;;;5035592;28;20774;-69
2021/09/08 02:27:21;;;;;;;9.10;6.90;;;15.70;99.90;;;;;;5035763;28;20182;-69
2021/09/08 02:29:46;;;;;;;9.77;6.50;;;15.70;99.90;;;;;;5034105;28;20642;-69
2021/09/08 02:32:12;;;;;;;11.10;7.63;;;15.70;99.90;;;;;;5035151;28;20526;-69
2021/09/08 02:34:37;;;;;;;10.57;7.90;;;15.70;99.90;;;;;;5035617;28;20161;-69
2021/09/08 02:37:03;;;;;;;12.10;7.90;;;15.60;99.90;;;;;;5035504;28;20180;-69
2021/09/08 02:39:30;;;;;;;10.90;7.90;;;15.60;99.90;;;;;;5018617;28;20208;-69
2021/09/08 02:41:56;;;;;;;9.67;7.40;;;15.60;99.90;;;;;;5032152;28;20180;-69
2021/09/08 02:44:21;;;;;;;11.77;7.77;;;15.60;99.90;;;;;;5035870;28;20407;-72
2021/09/08 02:46:47;;;;;;;11.70;8.10;;;15.50;99.90;;;;;;5035378;28;20575;-72
2021/09/08 02:49:12;;;;;;;11.70;9.07;;;15.50;99.90;;;;;;5035387;28;20218;-72
2021/09/08 02:51:38;;;;;;;14.30;8.17;;;15.50;99.90;;;;;;5035105;28;20761;-72
2021/09/08 02:54:04;;;;;;;11.10;8.40;;;15.50;99.90;;;;;;5035553;28;20180;-72
2021/09/08 02:56:29;;;;;;;10.53;7.77;;;15.50;99.90;;;;;;5035308;28;20157;-72
2021/09/08 02:58:55;;;;;;;11.03;7.53;;;15.50;99.90;;;;;;5034289;28;20208;-72
2021/09/08 03:01:20;;;;;;;11.10;8.23;;;15.50;99.90;;;;;;5032081;28;20177;-72
2021/09/08 03:03:46;;;;;;;14.13;8.93;;;15.40;99.90;;;;;;5035203;28;20157;-72
2021/09/08 03:06:12;;;;;;;11.70;8.30;;;15.40;99.90;;;;;;5035303;28;20251;-72
2021/09/08 03:08:37;;;;;;;12.50;8.60;;;15.50;99.90;;;;;;5034516;28;20184;-73
2021/09/08 03:11:03;;;;;;;9.73;8.47;;;15.40;99.90;;;;;;5034273;28;20525;-72
2021/09/08 03:13:29;;;;;;;11.00;8.03;;;15.40;99.90;;;;;;5034929;28;20626;-72
2021/09/08 03:15:54;;;;;;;12.93;9.50;;;15.40;99.90;;;;;;5034808;28;20897;-72
2021/09/08 03:18:19;;;;;;;11.33;8.73;;;15.40;99.90;;;;;;5034763;28;20207;-72
2021/09/08 03:20:45;;;;;;;11.10;7.50;;;15.40;99.90;;;;;;5034770;28;20656;-72
2021/09/08 03:23:11;;;;;;;11.70;7.53;;;15.40;99.90;;;;;;5027035;28;20177;-72
2021/09/08 03:25:36;;;;;;;10.70;7.97;;;15.40;99.90;;;;;;5021029;28;20183;-72
2021/09/08 03:28:02;;;;;;;10.57;8.00;;;15.30;99.90;;;;;;5033978;28;20292;-72
2021/09/08 03:30:28;;;;;;;13.47;9.00;;;15.30;99.90;;;;;;5033628;28;20211;-72
2021/09/08 03:32:54;;;;;;;10.60;8.37;;;15.30;99.90;;;;;;5034425;28;20336;-72
2021/09/08 03:35:20;;;;;;;12.80;9.33;;;15.30;99.90;;;;;;5034631;28;20415;-72
2021/09/08 03:37:46;;;;;;;11.20;8.03;;;15.30;99.90;;;;;;5034210;28;20231;-72
2021/09/08 03:40:12;;;;;;;14.70;9.97;;;15.20;99.90;;;;;;5021405;28;20423;-72
2021/09/08 03:42:39;;;;;;;12.73;9.70;;;15.30;99.90;;;;;;5032705;28;20171;-72
2021/09/08 03:45:05;;;;;;;10.80;8.37;;;15.20;99.90;;;;;;5034408;28;20446;-72
2021/09/08 03:47:31;;;;;;;11.47;7.67;;;15.20;99.90;;;;;;5032178;28;20430;-72
2021/09/08 03:49:56;;;;;;;13.70;9.57;;;15.20;99.90;;;;;;5033363;28;20477;-72
2021/09/08 03:52:22;;;;;;;10.37;8.50;;;15.10;99.90;;;;;;5029317;28;20192;-72
2021/09/08 03:54:47;;;;;;;12.67;8.87;;;15.10;99.90;;;;;;5021817;28;20294;-72
2021/09/08 03:57:13;;;;;;;12.43;8.70;;;15.10;99.90;;;;;;5022656;28;20191;-72
2021/09/08 03:59:39;;;;;;;13.40;8.83;;;15.10;99.90;;;;;;5028335;28;20246;-72
2021/09/08 04:02:05;;;;;;;11.53;8.33;;;15.10;99.90;;;;;;5029628;28;20241;-72
2021/09/08 04:04:30;;;;;;;10.47;8.30;;;15.10;99.90;;;;;;5034867;28;20168;-72
2021/09/08 04:06:56;;;;;;;10.30;8.23;;;15.00;99.90;;;;;;5033533;28;20438;-72
2021/09/08 04:09:22;;;;;;;16.30;9.13;;;15.00;99.90;;;;;;5033635;28;20179;-72
2021/09/08 04:11:48;;;;;;;12.03;8.80;;;15.00;99.90;;;;;;5033333;28;20650;-72
2021/09/08 04:14:13;;;;;;;12.80;9.07;;;15.00;99.90;;;;;;5033600;28;20191;-72
2021/09/08 04:16:39;;;;;;;11.60;8.97;;;15.00;99.90;;;;;;5033835;28;20407;-72
2021/09/08 04:19:04;;;;;;;12.77;8.77;;;15.00;99.90;;;;;;5033677;28;20195;-72
2021/09/08 04:21:31;;;;;;;12.20;9.03;;;14.90;99.90;;;;;;5033370;28;20196;-72
2021/09/08 04:23:56;;;;;;;12.13;8.50;;;14.90;99.90;;;;;;5032158;28;20180;-72
2021/09/08 04:26:23;;;;;;;12.10;8.67;;;14.90;99.90;;;;;;5023262;28;20428;-72
2021/09/08 04:28:49;;;;;;;10.70;8.50;;;14.90;99.90;;;;;;5020772;28;20723;-72
2021/09/08 04:31:15;;;;;;;14.60;8.90;;;14.90;99.90;;;;;;5023281;28;21008;-72
2021/09/08 04:33:40;;;;;;;11.87;8.40;;;14.90;99.90;;;;;;5032475;28;20399;-72
2021/09/08 04:36:06;;;;;;;11.87;9.20;;;14.90;99.90;;;;;;5032926;28;20451;-72
2021/09/08 04:38:31;;;;;;;12.30;8.97;;;14.90;99.90;;;;;;5032743;28;20216;-72
2021/09/08 04:40:57;;;;;;;12.73;9.03;;;14.90;99.90;;;;;;5031779;28;20266;-72
2021/09/08 04:43:23;;;;;;;12.73;8.70;;;14.80;99.90;;;;;;5032671;28;20183;-72
2021/09/08 04:45:49;;;;;;;10.93;8.23;;;14.80;99.90;;;;;;5031943;28;20192;-72
2021/09/08 04:48:14;;;;;;;10.37;7.90;;;14.80;99.90;;;;;;5028821;28;20191;-72
2021/09/08 04:50:40;;;;;;;12.23;9.23;;;14.80;99.90;;;;;;5027121;28;21360;-72
2021/09/08 04:53:06;;;;;;;15.17;9.20;;;14.80;99.90;;;;;;5032753;28;20194;-72
2021/09/08 04:55:31;;;;;;;13.00;8.70;;;14.80;99.90;;;;;;5030422;28;20189;-72
2021/09/08 04:57:57;;;;;;;13.73;9.37;;;14.80;99.90;;;;;;5032375;28;20207;-72
2021/09/08 05:00:22;;;;;;;12.07;8.07;;;14.80;99.90;;;;;;5031047;28;20257;-72
2021/09/08 05:02:48;;;;;;;15.27;8.57;;;14.80;99.90;;;;;;5023602;28;20178;-72
2021/09/08 05:05:14;;;;;;;11.43;9.13;;;14.80;99.90;;;;;;5029519;28;20550;-72
2021/09/08 05:07:39;;;;;;;11.23;9.07;;;14.80;99.90;;;;;;5030784;28;20625;-72
2021/09/08 05:10:05;;;;;;;17.80;10.20;;;14.80;99.90;;;;;;5032225;28;20174;-72
2021/09/08 05:12:31;;;;;;;13.40;9.63;;;14.70;99.90;;;;;;5031376;28;20176;-72
2021/09/08 05:14:56;;;;;;;12.77;9.20;;;14.80;99.90;;;;;;5029740;28;20745;-72
2021/09/08 05:17:22;;;;;;;10.83;8.53;;;14.70;99.90;;;;;;5020745;28;20202;-72
2021/09/08 05:19:48;;;;;;;14.47;10.13;;;14.70;99.90;;;;;;5031480;28;20569;-72
2021/09/08 05:22:13;;;;;;;12.50;9.10;;;14.70;99.90;;;;;;5030729;28;20188;-71
2021/09/08 05:24:39;;;;;;;12.47;8.93;;;14.80;99.90;;;;;;5023599;28;20179;-72
2021/09/08 05:27:04;;;;;;;12.83;8.50;;;14.70;99.90;;;;;;5011629;28;20207;-72
2021/09/08 05:29:30;;;;;;;11.60;8.87;;;14.70;99.90;;;;;;5021457;28;20269;-72
2021/09/08 05:31:56;;;;;;;12.67;9.50;;;14.70;99.90;;;;;;5022815;28;20198;-72
2021/09/08 05:34:21;;;;;;;12.03;8.80;;;14.70;99.90;;;;;;5024891;28;20252;-72
2021/09/08 05:36:47;;;;;;;13.70;9.93;;;14.70;99.90;;;;;;5030450;28;20189;-72
2021/09/08 05:39:13;;;;;;;13.60;9.70;;;14.70;99.90;;;;;;5029585;28;20303;-72
2021/09/08 05:41:39;;;;;;;13.00;9.67;;;14.80;99.90;;;;;;5030703;28;20450;-72
2021/09/08 05:44:05;;;;;;;10.33;8.73;;;14.80;99.90;;;;;;5029356;28;20978;-72
2021/09/08 05:46:30;;;;;;;11.30;9.17;;;14.80;99.90;;;;;;5031003;28;20230;-72
2021/09/08 05:48:56;;;;;;;12.23;8.97;;;14.80;99.90;;;;;;5027271;28;20175;-72
2021/09/08 05:51:22;;;;;;;13.10;8.70;;;14.80;99.90;;;;;;5029509;28;20273;-72
2021/09/08 05:53:47;;;;;;;11.97;9.10;;;14.90;99.90;;;;;;5029505;28;20170;-73
2021/09/08 05:56:13;;;;;;;14.00;9.03;;;14.90;99.90;;;;;;5030056;28;20177;-72
2021/09/08 05:58:39;;;;;;;11.83;9.00;;;15.00;99.90;;;;;;5031271;28;20675;-72
2021/09/08 06:01:04;;;;;;;16.47;10.07;;;15.00;99.90;;;;;;5029343;28;20184;-72
2021/09/08 06:03:30;;;;;;;12.73;9.00;;;15.00;99.90;;;;;;5029911;28;20168;-72
2021/09/08 06:05:55;;;;;;;12.37;8.90;;;15.10;99.90;;;;;;5029105;28;20232;-72
2021/09/08 06:08:21;;;;;;;11.33;9.07;;;15.10;99.90;;;;;;5026134;28;20184;-72
2021/09/08 06:10:46;;;;;;;13.17;9.30;;;15.10;99.90;;;;;;5028799;28;20598;-72
2021/09/08 06:13:12;;;;;;;11.00;8.80;;;15.20;99.90;;;;;;5025485;28;20737;-68
2021/09/08 06:15:38;;;;;;;10.57;8.40;;;15.20;99.90;;;;;;5027218;28;20187;-68
2021/09/08 06:18:05;;;;;;;19.13;9.47;;;15.30;99.90;;;;;;5024689;28;20223;-69
2021/09/08 06:20:31;;;;;;;13.53;9.40;;;15.30;99.90;;;;;;5025964;28;20176;-68
2021/09/08 06:22:57;;;;;;;11.60;8.80;;;15.40;99.90;;;;;;5029417;28;20423;-68
2021/09/08 06:25:23;;;;;;;14.93;9.70;;;15.40;99.90;;;;;;5028307;28;20436;-68
2021/09/08 06:27:48;;;;;;;13.23;8.87;;;15.50;99.90;;;;;;5019067;28;20602;-68
2021/09/08 06:30:14;;;;;;;14.20;9.63;;;15.50;99.90;;;;;;5027747;28;20427;-68
2021/09/08 06:32:40;;;;;;;14.33;10.10;;;15.60;99.90;;;;;;5019358;28;20185;-68
2021/09/08 06:35:06;;;;;;;14.20;9.57;;;15.60;99.90;;;;;;5030932;28;20153;-68
2021/09/08 06:37:31;;;;;;;12.40;9.10;;;15.70;99.90;;;;;;5022894;28;20243;-68
2021/09/08 06:39:57;;;;;;;13.47;9.57;;;15.80;99.90;;;;;;5017361;28;20460;-68
2021/09/08 06:42:23;;;;;;;13.53;9.87;;;15.80;99.90;;;;;;5031307;28;20268;-68
2021/09/08 06:44:52;;;;;;;13.67;8.20;;;15.90;99.90;;;;;;5028729;28;20200;-69
2021/09/08 06:47:18;;;;;;;15.70;9.10;;;16.00;99.90;;;;;;5033120;28;20571;-68
2021/09/08 06:49:44;;;;;;;14.67;9.17;;;16.10;99.90;;;;;;5034983;28;20391;-68
2021/09/08 06:52:10;;;;;;;14.30;9.93;;;16.10;99.90;;;;;;5027529;28;20471;-68
2021/09/08 06:54:35;;;;;;;14.20;10.00;;;16.20;99.90;;;;;;5016076;28;20146;-68
2021/09/08 06:57:01;;;;;;;14.40;9.67;;;16.30;99.90;;;;;;5032927;28;20477;-68
2021/09/08 06:59:27;;;;;;;15.10;9.40;;;16.30;99.90;;;;;;5034516;28;20196;-69
2021/09/08 07:01:52;;;;;;;13.17;9.73;;;16.40;99.90;;;;;;5032110;28;20260;-69
2021/09/08 07:04:18;;;;;;;12.17;10.03;;;16.50;99.90;;;;;;5031747;28;20180;-68
2021/09/08 07:06:43;;;;;;;16.83;10.00;;;16.60;99.90;;;;;;5033540;28;20184;-69
2021/09/08 07:09:09;;;;;;;14.73;10.17;;;16.70;99.90;;;;;;5032568;28;20189;-68
2021/09/08 07:11:35;;;;;;;17.77;10.43;;;16.80;99.90;;;;;;5032581;28;20239;-69
2021/09/08 07:14:02;;;;;;;13.17;10.10;;;16.90;99.90;;;;;;5032792;28;20184;-69
2021/09/08 07:16:28;;;;;;;15.10;10.67;;;16.90;99.90;;;;;;5025027;28;20790;-69
2021/09/08 07:18:53;;;;;;;17.17;10.87;;;17.10;99.90;;;;;;5016990;28;20459;-69
2021/09/08 07:21:19;;;;;;;13.73;10.10;;;17.10;99.90;;;;;;5030644;28;20307;-69
2021/09/08 07:23:44;;;;;;;15.97;9.67;;;17.20;99.90;;;;;;5034319;28;20165;-68
2021/09/08 07:26:10;;;;;;;15.30;11.00;;;17.20;99.90;;;;;;5031891;28;20199;-69
2021/09/08 07:28:36;;;;;;;13.43;9.80;;;17.30;99.90;;;;;;5033569;28;20181;-69
2021/09/08 07:31:01;;;;;;;14.60;9.80;;;17.40;99.90;;;;;;5025263;28;20265;-69
2021/09/08 07:33:27;;;;;;;11.90;9.63;;;17.50;99.90;;;;;;5022799;28;20228;-68
2021/09/08 07:35:53;;;;;;;13.77;9.67;;;17.50;99.90;;;;;;5029306;28;20201;-69
2021/09/08 07:38:19;;;;;;;16.63;9.50;;;17.60;99.90;;;;;;5033782;28;20576;-69
2021/09/08 07:40:45;;;;;;;14.50;9.00;;;17.70;99.90;;;;;;5032466;28;20186;-69
2021/09/08 07:43:11;;;;;;;11.50;10.07;;;17.80;99.90;;;;;;5030478;28;20408;-69
2021/09/08 07:45:37;;;;;;;12.00;9.00;;;17.90;99.90;;;;;;5023799;28;20420;-69
2021/09/08 07:48:03;;;;;;;14.10;9.70;;;18.00;99.90;;;;;;5030442;28;20213;-69
2021/09/08 07:50:29;;;;;;;11.33;8.77;;;18.10;99.90;;;;;;5024455;28;20781;-69
2021/09/08 07:52:55;;;;;;;12.80;9.00;;;18.10;99.90;;;;;;5030011;28;21203;-69
2021/09/08 07:55:20;;;;;;;11.17;9.57;;;18.20;99.90;;;;;;5033312;28;20171;-68
2021/09/08 07:57:46;;;;;;;14.67;10.27;;;18.30;99.90;;;;;;5030979;28;20199;-69
2021/09/08 08:00:12;;;;;;;14.87;9.60;;;18.30;99.90;;;;;;5030267;28;20566;-69
2021/09/08 08:02:46;;;;;;;13.33;9.10;;;18.40;99.90;;;;;;5031427;28;20173;-69
2021/09/08 08:05:14;;;;;;;13.23;9.23;;;18.50;99.90;;;;;;5029243;28;20427;-69
2021/09/08 08:07:40;;;;;;;11.37;10.17;;;18.60;99.90;;;;;;5029226;28;20432;-69
2021/09/08 08:10:06;;;;;;;11.10;8.83;;;18.60;99.90;;;;;;5031529;28;20430;-69
2021/09/08 08:12:32;;;;;;;11.73;8.67;;;18.70;99.90;;;;;;5033218;28;20207;-69
2021/09/08 08:14:58;;;;;;;11.50;9.37;;;18.80;99.90;;;;;;5027412;28;20821;-69
2021/09/08 08:17:23;;;;;;;11.90;8.87;;;18.90;99.90;;;;;;5029970;28;20264;-69
2021/09/08 08:19:49;;;;;;;13.47;10.00;;;19.00;99.90;;;;;;5031732;28;20200;-69
2021/09/08 08:22:16;;;;;;;10.57;7.97;;;19.10;99.90;;;;;;5028764;28;20185;-69
2021/09/08 08:24:41;;;;;;;9.57;7.97;;;19.20;99.90;;;;;;5032115;28;20161;-70
2021/09/08 08:27:07;;;;;;;11.00;8.47;;;19.30;99.90;;;;;;5031170;28;20416;-68
2021/09/08 08:29:33;;;;;;;11.20;9.30;;;19.30;99.90;;;;;;5025337;28;20184;-68
2021/09/08 08:31:59;;;;;;;9.70;8.40;;;19.40;99.90;;;;;;5027591;28;20187;-69
2021/09/08 08:34:25;;;;;;;8.03;6.60;;;19.50;99.90;;;;;;5026955;28;20435;-69
2021/09/08 08:36:51;;;;;;;9.43;7.50;;;19.60;99.90;;;;;;5020088;28;20439;-69
2021/09/08 08:39:17;;;;;;;11.40;7.20;;;19.80;99.90;;;;;;5018572;28;20287;-69
2021/09/08 08:41:42;;;;;;;10.10;7.83;;;19.90;99.90;;;;;;5030648;28;20427;-69
2021/09/08 08:44:10;;;;;;;9.83;7.50;;;19.90;99.90;;;;;;5029931;28;20458;-68
2021/09/08 08:46:36;;;;;;;11.00;7.70;;;20.00;99.90;;;;;;5016565;28;20661;-67
2021/09/08 08:49:02;;;;;;;9.40;7.17;;;20.10;99.90;;;;;;5029326;28;20419;-70
2021/09/08 08:51:28;;;;;;;8.53;6.70;;;20.30;99.90;;;;;;5028104;28;20909;-70
2021/09/08 08:53:54;;;;;;;10.30;8.10;;;20.50;99.90;;;;;;5023765;28;20426;-70
2021/09/08 08:56:20;;;;;;;10.33;8.00;;;20.70;99.90;;;;;;5030157;28;20564;-67
2021/09/08 08:58:46;;;;;;;6.87;6.17;;;20.80;99.90;;;;;;5028339;28;20219;-68
2021/09/08 09:01:18;;;;;;;8.93;8.00;;;21.00;99.90;;;;;;5029760;28;20486;-69
2021/09/08 09:03:59;;;;;;;10.83;6.27;;;21.20;99.90;;;;;;5029326;28;20183;-69
2021/09/08 09:06:28;;;;;;;8.53;7.63;;;21.30;99.90;;;;;;5027870;28;20514;-68
2021/09/08 09:09:04;;;;;;;7.90;6.10;;;21.40;99.90;;;;;;5027625;28;20469;-69
2021/09/08 09:11:31;;;;;;;7.73;5.93;;;21.50;99.90;;;;;;5028694;28;20871;-69
2021/09/08 09:13:57;;;;;;;8.10;6.07;;;21.70;99.90;;;;;;5027849;28;20489;-69
2021/09/08 09:16:26;;;;;;;7.17;6.40;;;21.90;99.90;;;;;;5026123;28;20439;-69
2021/09/08 09:18:52;;;;;;;8.73;5.97;;;22.10;99.90;;;;;;5029865;28;22291;-70
2021/09/08 09:21:18;;;;;;;8.70;6.90;;;22.50;99.90;;;;;;5029438;28;20467;-69
2021/09/08 09:23:46;;;;;;;8.90;7.10;;;23.00;99.90;;;;;;5030751;28;20458;-69
2021/09/08 09:26:12;;;;;;;9.60;6.60;;;23.50;99.90;;;;;;5028349;28;20189;-69
2021/09/08 09:28:41;;;;;;;7.27;5.70;;;24.00;99.90;;;;;;5030257;28;20985;-69
2021/09/08 09:31:17;;;;;;;7.47;6.03;;;24.40;99.90;;;;;;5027861;28;20187;-69
2021/09/08 09:33:44;;;;;;;7.50;5.27;;;24.70;99.90;;;;;;5029463;28;20407;-69
2021/09/08 09:36:20;;;;;;;6.50;5.43;;;24.90;99.90;;;;;;5029228;28;20433;-69
2021/09/08 09:38:47;;;;;;;7.57;5.53;;;25.10;99.90;;;;;;5030161;28;20482;-69
2021/09/08 09:41:17;;;;;;;6.17;5.57;;;25.10;99.90;;;;;;5022803;28;20469;-69
2021/09/08 09:43:44;;;;;;;9.33;5.83;;;25.00;99.90;;;;;;5024953;28;20466;-70
2021/09/08 09:46:10;;;;;;;7.40;6.37;;;24.70;99.90;;;;;;5028510;28;20423;-69
2021/09/08 09:48:37;;;;;;;6.97;5.03;;;24.60;99.90;;;;;;5028722;28;20796;-69
2021/09/08 09:51:04;;;;;;;7.73;6.17;;;24.40;99.90;;;;;;5030970;28;20640;-69
2021/09/08 09:53:31;;;;;;;7.50;5.30;;;24.30;99.90;;;;;;5030212;28;21290;-69
2021/09/08 09:55:58;;;;;;;7.00;6.30;;;24.30;99.90;;;;;;5027235;28;20438;-69
2021/09/08 09:58:24;;;;;;;7.00;4.90;;;24.30;99.90;;;;;;5024626;28;20462;-69
2021/09/08 10:00:51;;;;;;;7.17;5.27;;;24.30;99.90;;;;;;5029588;28;20566;-69
2021/09/08 10:03:18;;;;;;;7.93;6.50;;;24.30;99.90;;;;;;5027380;28;20485;-69
2021/09/08 10:05:43;;;;;;;7.67;5.73;;;24.30;99.90;;;;;;5029456;28;20797;-69
2021/09/08 10:08:10;;;;;;;7.53;5.90;;;24.40;99.90;;;;;;5030851;28;20408;-69
2021/09/08 10:10:37;;;;;;;6.53;5.57;;;24.30;99.90;;;;;;5030331;28;20163;-68
2021/09/08 10:13:27;;;;;;;6.83;5.37;;;24.30;99.00;;;;;;5026897;28;20921;-68
2021/09/08 10:15:53;;;;;;;5.40;4.90;;;24.40;97.20;;;;;;5029266;28;20481;-69
2021/09/08 10:18:25;;;;;;;8.03;5.47;;;24.50;97.40;;;;;;5028612;28;20465;-69
2021/09/08 10:20:59;;;;;;;8.37;6.23;;;24.40;99.70;;;;;;5027533;28;20923;-69
2021/09/08 10:23:24;;;;;;;7.43;6.43;;;24.40;99.00;;;;;;5030751;28;20418;-68
2021/09/08 10:25:51;;;;;;;8.53;5.87;;;24.30;98.10;;;;;;5031512;28;20411;-70
2021/09/08 10:28:19;;;;;;;7.90;6.07;;;24.20;99.30;;;;;;5033451;28;20216;-70
2021/09/08 10:30:47;;;;;;;10.40;7.13;;;24.10;97.70;;;;;;5024738;28;20491;-69
2021/09/08 10:33:13;;;;;;;6.10;5.23;;;24.10;97.30;;;;;;5027145;28;20415;-69
2021/09/08 10:35:40;;;;;;;7.63;5.93;;;24.10;97.20;;;;;;5029542;28;20430;-69
2021/09/08 10:38:18;;;;;;;6.20;4.97;;;24.10;96.70;;;;;;5032460;28;20557;-70
2021/09/08 10:40:45;;;;;;;6.47;5.30;;;24.10;96.60;;;;;;5028310;28;20502;-69
2021/09/08 10:43:11;;;;;;;8.20;6.67;;;24.00;98.10;;;;;;5023709;28;20430;-69
2021/09/08 10:45:50;;;;;;;8.23;6.13;;;24.00;97.00;;;;;;5026672;28;20945;-69
2021/09/08 10:51:40;;;;;;;6.00;5.33;;;24.00;96.50;;;;;;5054947;28;20564;-69
2021/09/08 10:54:06;;;;;;;7.20;5.67;;;24.00;96.20;;;;;;5025197;28;20857;-69
2021/09/08 10:59:16;;;;;;;6.63;6.03;;;24.00;97.40;;;;;;5094876;27;20530;-69
2021/09/08 11:01:42;;;;;;;6.17;5.07;;;23.80;99.40;;;;;;5085669;28;20920;-69
2021/09/08 11:04:14;;;;;;;7.07;5.77;;;23.70;97.90;;;;;;5086937;28;20175;-69
2021/09/08 11:06:44;;;;;;;6.80;6.10;;;23.70;99.90;;;;;;5084792;28;20620;-69
2021/09/08 11:09:11;;;;;;;5.40;4.67;;;23.60;99.90;;;;;;5085278;28;20409;-69
2021/09/08 11:11:56;;;;;;;6.90;5.30;;;23.50;99.90;;;;;;5082805;28;20409;-69
2021/09/08 11:14:42;;;;;;;5.70;4.80;;;23.40;99.80;;;;;;5085992;28;20448;-69
2021/09/08 11:17:08;;;;;;;8.13;7.33;;;23.40;99.90;;;;;;5084570;28;20452;-69
2021/09/08 11:19:33;;;;;;;8.23;7.10;;;23.40;99.00;;;;;;5087249;28;20462;-69
2021/09/08 11:21:59;;;;;;;7.30;6.60;;;23.40;99.10;;;;;;5084911;28;20190;-69
2021/09/08 11:24:29;;;;;;;7.90;7.00;;;23.40;99.50;;;;;;5086445;28;20167;-69
2021/09/08 11:27:07;;;;;;;7.07;6.13;;;23.50;98.20;;;;;;5088615;28;20167;-69
2021/09/08 11:29:32;;;;;;;7.27;5.50;;;23.50;98.50;;;;;;5075318;28;20470;-70
2021/09/08 11:31:58;;;;;;;8.37;6.10;;;23.50;99.80;;;;;;5084268;28;20445;-69
2021/09/08 11:34:25;;;;;;;7.90;5.83;;;23.40;98.20;;;;;;5083438;28;20175;-70
2021/09/08 11:36:53;;;;;;;7.27;6.43;;;23.40;98.10;;;;;;5083989;28;20155;-69
2021/09/08 11:39:21;;;;;;;7.67;5.40;;;23.40;99.40;;;;;;5075884;28;20424;-70
2021/09/08 11:42:04;;;;;;;8.27;6.00;;;23.50;98.00;;;;;;5082645;28;20599;-70
2021/09/08 11:44:31;;;;;;;6.07;5.47;;;23.50;97.80;;;;;;5081883;28;20420;-70
2021/09/08 11:46:57;;;;;;;6.83;6.20;;;23.50;99.70;;;;;;5081480;28;20444;-69
2021/09/08 11:49:23;;;;;;;6.87;5.63;;;23.40;98.50;;;;;;5081638;28;20421;-69
2021/09/08 11:51:50;;;;;;;7.50;6.10;;;23.40;98.90;;;;;;5080819;28;20791;-69
2021/09/08 11:54:18;;;;;;;5.90;5.30;;;23.40;99.10;;;;;;5085031;28;20438;-70
2021/09/08 12:02:06;;;;;;;5.97;5.33;;;23.50;98.10;;;;;;5052178;28;20649;-69
2021/09/08 12:04:32;;;;;;;7.07;6.00;;;23.60;97.90;;;;;;5046831;28;20772;-69
2021/09/08 12:07:00;;;;;;;7.17;6.40;;;23.60;97.80;;;;;;5048833;28;20238;-69
2021/09/08 12:09:27;;;;;;;7.80;5.37;;;23.60;98.10;;;;;;5045617;28;20191;-67
2021/09/08 12:11:55;;;;;;;6.10;5.47;;;23.50;99.70;;;;;;5047150;28;20533;-67
2021/09/08 12:17:21;;;;;;;7.27;6.17;;;23.40;99.90;;;;;;5116487;27;20513;-69
2021/09/08 12:22:36;;;;;;;6.73;5.23;;;23.50;97.40;;;;;;5059239;28;20544;-69
2021/09/08 12:27:45;;;;;;;6.00;5.40;;;23.50;97.60;;;;;;5046874;28;20672;-69
2021/09/08 12:38:38;;;;;;;7.30;6.27;;;23.50;98.40;;;;;;5076240;28;20550;-69
2021/09/08 12:41:27;;;;;;;7.17;6.47;;;23.30;99.10;;;;;;5053853;28;20775;-69
2021/09/08 12:46:50;;;;;;;6.40;5.77;;;23.50;99.70;;;;;;5069537;27;20535;-69
2021/09/08 12:49:19;;;;;;;5.50;4.90;;;23.60;98.70;;;;;;5066517;28;20428;-68
2021/09/08 12:51:45;;;;;;;6.50;5.57;;;23.50;99.90;;;;;;5065597;28;20449;-69
2021/09/08 12:54:12;;;;;;;6.27;5.67;;;23.50;99.60;;;;;;5064121;28;20418;-69
2021/09/08 12:56:39;;;;;;;6.50;5.83;;;23.50;99.80;;;;;;5067363;28;20823;-69
2021/09/08 12:59:05;;;;;;;5.67;5.10;;;23.50;98.70;;;;;;5064806;28;20441;-69
2021/09/08 13:01:31;;;;;;;6.20;5.10;;;23.50;98.50;;;;;;5060447;28;20460;-68
2021/09/08 13:03:57;;;;;;;6.20;5.17;;;23.50;99.60;;;;;;5066533;28;20445;-68
2021/09/08 13:06:22;;;;;;;6.63;4.90;;;23.50;98.90;;;;;;5066171;28;20239;-69
2021/09/08 13:08:48;;;;;;;7.93;5.40;;;23.50;98.80;;;;;;5063714;28;20981;-69